Darstellungsparameter: Aktuell verwendete Einstellungen:
Skalierung der Graphiken ... ?
xyx+y,   Skalierungsfaktor:      Skalierung: Modus: x, Faktor: 1
Darstellungszeitraum ... ?
Vom - - bis: - -   Zeitraum: 04.12.2011 - 04.12.2011
Min/Max/Avg-Anzeige ... ?
Zeige MMA aktuell
Zeige MMA Monat
Zeige MMA alles
Zeige --A aktuell
Zeige --A Monat
Zeige --A alles
Keine MMA-Anzeige
MMA:
Keine MMA-Graphiken
MMA-Basis: 04.12.2011 - 04.12.2011
Quicknavigation für Darstellung... ?
Tage:      1T, 2T, 3T, 5T -1T -2T -3T -5T +1T +2T +3T +5T
Wochen: 1W, 2W, 3W -1W -2W -3W +1W +2W +3W
Monate: 1M, 3M, 6M -1M -3M -6M +1M +3M +6M
Jahre:    1J, 3J, 5J, 10J -1J -3J -5J -10J +1J +3J +5J +10J
Nutze für die Darstellung ... ?
Originaldaten oder Mittelwerte auf ...
Stundenbasis Tagesbasis Wochenbasis
Monatsbasis Jahresbasis      Datenbasis: Original-Daten
Darstellen als:
Statistik (Auto) Statistik J:M      Darstellung:
Zur Graphik,    zurück zur Übersicht aller Sensoren.
 
Tabellarische Datenbersicht: ?
 
Sensor: Nr:Datum:Temp:Abs-Feuchte:Windchill:Wind:
Aussen-T/F 1 04-12-2011 00:02:02 7.8 C 6.69 g/m*3 7.8 C 0 km/h
2 04-12-2011 00:14:02 7.6 C 6.53 g/m*3 7.6 C 0 km/h
3 04-12-2011 00:26:01 6.9 C 6.31 g/m*3 6.9 C 0 km/h
4 04-12-2011 00:38:02 6.8 C 6.35 g/m*3 6.8 C 0 km/h
5 04-12-2011 00:50:02 7.1 C 6.47 g/m*3 7.1 C 0 km/h
6 04-12-2011 01:02:02 7.3 C 6.56 g/m*3 7.3 C 0 km/h
7 04-12-2011 01:14:02 6.6 C 6.27 g/m*3 6.6 C 0 km/h
8 04-12-2011 01:26:02 6.5 C 6.3 g/m*3 6.5 C 0 km/h
9 04-12-2011 01:38:02 6.6 C 6.49 g/m*3 6.6 C 0 km/h
10 04-12-2011 01:50:02 7.1 C 6.71 g/m*3 7.1 C 0 km/h
11 04-12-2011 02:02:02 7.4 C 6.84 g/m*3 7.4 C 0 km/h
12 04-12-2011 02:14:03 7.7 C 6.89 g/m*3 7.7 C 0 km/h
13 04-12-2011 02:26:02 8.6 C 6.87 g/m*3 8.6 C 0 km/h
14 04-12-2011 02:38:02 9.3 C 6.56 g/m*3 9.3 C 0 km/h
15 04-12-2011 02:51:03 9.5 C 6.46 g/m*3 9.5 C 0 km/h
16 04-12-2011 03:03:03 9.6 C 6.41 g/m*3 9.6 C 0 km/h
17 04-12-2011 03:15:03 9.4 C 6.42 g/m*3 9.4 C 0 km/h
18 04-12-2011 03:27:03 9.4 C 6.51 g/m*3 9.4 C 0 km/h
19 04-12-2011 03:39:01 9.6 C 6.6 g/m*3 9.6 C 0 km/h
20 04-12-2011 03:51:01 9.7 C 6.55 g/m*3 9.7 C 0 km/h
21 04-12-2011 04:03:02 9.9 C 6.63 g/m*3 9.9 C 0 km/h
22 04-12-2011 04:15:01 10 C 6.67 g/m*3 10 C 0 km/h
23 04-12-2011 04:27:01 10.1 C 6.71 g/m*3 10.1 C 0 km/h
24 04-12-2011 04:39:02 10 C 6.67 g/m*3 10 C 0 km/h
25 04-12-2011 04:51:01 10.2 C 6.85 g/m*3 10.2 C 0 km/h
Sensor: Nr:Datum:Temp:Abs-Feuchte:Windchill:Wind:
Aussen-T/F 26 04-12-2011 05:03:02 10 C 6.86 g/m*3 10 C 0 km/h
27 04-12-2011 05:15:01 9.6 C 7.05 g/m*3 9.6 C 0 km/h
28 04-12-2011 05:27:01 9.4 C 7.24 g/m*3 9.4 C 0 km/h
29 04-12-2011 05:39:02 9.2 C 7.32 g/m*3 9.2 C 0 km/h
30 04-12-2011 05:51:01 8.9 C 7.45 g/m*3 8.9 C 0 km/h
31 04-12-2011 06:03:02 8.9 C 7.53 g/m*3 8.9 C 0 km/h
32 04-12-2011 06:15:02 9 C 7.58 g/m*3 9 C 0 km/h
33 04-12-2011 06:27:02 9.2 C 7.68 g/m*3 9.2 C 0 km/h
34 04-12-2011 06:39:01 8.9 C 7.62 g/m*3 8.9 C 0 km/h
35 04-12-2011 06:51:02 8.7 C 7.52 g/m*3 8.7 C 0 km/h
36 04-12-2011 07:03:01 8.7 C 7.61 g/m*3 8.7 C 0 km/h
37 04-12-2011 07:15:02 8.7 C 7.61 g/m*3 8.7 C 0 km/h
38 04-12-2011 07:27:03 9.1 C 7.81 g/m*3 9.1 C 0 km/h
39 04-12-2011 07:39:01 9.3 C 7.91 g/m*3 9.3 C 0 km/h
40 04-12-2011 07:51:02 9.3 C 7.91 g/m*3 9.3 C 0 km/h
41 04-12-2011 08:03:02 9.1 C 7.81 g/m*3 9.1 C 0 km/h
42 04-12-2011 08:15:02 8.9 C 7.8 g/m*3 8.9 C 0 km/h
43 04-12-2011 08:27:02 8.5 C 7.51 g/m*3 8.5 C 0 km/h
44 04-12-2011 08:39:02 8.2 C 7.37 g/m*3 8.2 C 0 km/h
45 04-12-2011 08:51:02 8 C 7.19 g/m*3 8 C 0 km/h
46 04-12-2011 09:03:02 8 C 7.19 g/m*3 8 C 0 km/h
47 04-12-2011 09:15:01 8 C 7.28 g/m*3 8 C 0 km/h
48 04-12-2011 09:27:01 8 C 7.28 g/m*3 8 C 0 km/h
49 04-12-2011 09:39:02 8.1 C 7.16 g/m*3 8.1 C 0 km/h
50 04-12-2011 09:51:02 8.1 C 6.99 g/m*3 8.1 C 0 km/h
Sensor: Nr:Datum:Temp:Abs-Feuchte:Windchill:Wind:
Aussen-T/F 51 04-12-2011 10:03:02 8.1 C 6.99 g/m*3 8.1 C 0 km/h
52 04-12-2011 10:15:01 8.3 C 6.91 g/m*3 8.3 C 0 km/h
53 04-12-2011 10:27:01 8.6 C 6.87 g/m*3 8.6 C 0 km/h
54 04-12-2011 10:39:02 8.7 C 6.66 g/m*3 8.7 C 0 km/h
55 04-12-2011 10:51:01 9.1 C 6.39 g/m*3 9.1 C 0 km/h
56 04-12-2011 11:03:02 9.3 C 6.29 g/m*3 9.3 C 0 km/h
57 04-12-2011 11:15:02 9.3 C 6.38 g/m*3 9.3 C 0 km/h
58 04-12-2011 11:27:02 9.4 C 6.15 g/m*3 9.4 C 0 km/h
59 04-12-2011 11:39:02 9.4 C 5.88 g/m*3 9.4 C 0 km/h
60 04-12-2011 11:51:02 9.4 C 5.79 g/m*3 9.4 C 0 km/h
61 04-12-2011 12:03:02 9.4 C 5.79 g/m*3 9.4 C 0 km/h
62 04-12-2011 12:15:02 9.4 C 5.88 g/m*3 9.4 C 0 km/h
63 04-12-2011 12:27:02 9.6 C 5.77 g/m*3 9.6 C 0 km/h
64 04-12-2011 12:39:01 9.7 C 5.72 g/m*3 9.7 C 0 km/h
65 04-12-2011 12:51:02 9.7 C 5.81 g/m*3 9.7 C 0 km/h
66 04-12-2011 13:03:01 9.7 C 5.81 g/m*3 9.7 C 0 km/h
67 04-12-2011 13:15:01 9.7 C 5.81 g/m*3 9.7 C 0 km/h
68 04-12-2011 13:27:01 9 C 5.91 g/m*3 9 C 0 km/h
69 04-12-2011 13:39:02 8.6 C 6.19 g/m*3 8.6 C 0 km/h
70 04-12-2011 13:51:02 8.5 C 6.23 g/m*3 8.5 C 0 km/h
71 04-12-2011 14:03:02 8.6 C 6.44 g/m*3 8.6 C 0 km/h
72 04-12-2011 14:15:02 8.9 C 6.22 g/m*3 8.9 C 0 km/h
73 04-12-2011 14:27:02 8.9 C 6.13 g/m*3 8.9 C 0 km/h
74 04-12-2011 14:39:02 8.8 C 6.09 g/m*3 8.8 C 0 km/h
75 04-12-2011 14:51:02 8.3 C 6.07 g/m*3 8.3 C 0 km/h
Sensor: Nr:Datum:Temp:Abs-Feuchte:Windchill:Wind:
Aussen-T/F 76 04-12-2011 15:03:02 8.3 C 6.24 g/m*3 8.3 C 0 km/h
77 04-12-2011 15:15:02 8.3 C 6.41 g/m*3 8.3 C 0 km/h
78 04-12-2011 15:27:02 8 C 6.37 g/m*3 8 C 0 km/h
79 04-12-2011 15:39:02 8.4 C 6.36 g/m*3 8.4 C 0 km/h
80 04-12-2011 15:51:02 8.2 C 6.36 g/m*3 8.2 C 0 km/h
81 04-12-2011 16:03:02 8.5 C 6.49 g/m*3 8.5 C 0 km/h
82 04-12-2011 16:15:03 8.5 C 6.32 g/m*3 8.5 C 0 km/h
83 04-12-2011 16:27:03 8.7 C 6.31 g/m*3 8.7 C 0 km/h
84 04-12-2011 16:39:02 8.1 C 6.41 g/m*3 8.1 C 0 km/h
85 04-12-2011 16:51:03 7.7 C 6.65 g/m*3 7.7 C 0 km/h
86 04-12-2011 17:03:02 7.6 C 6.77 g/m*3 7.6 C 0 km/h
87 04-12-2011 17:15:02 7.5 C 6.88 g/m*3 7.5 C 0 km/h
88 04-12-2011 17:27:02 7.5 C 6.96 g/m*3 7.5 C 0 km/h
89 04-12-2011 17:39:02 7.5 C 7.04 g/m*3 7.5 C 0 km/h
90 04-12-2011 17:51:02 7.6 C 7.09 g/m*3 7.6 C 0 km/h
91 04-12-2011 18:03:02 7.4 C 7 g/m*3 7.4 C 0 km/h
92 04-12-2011 18:15:02 7.3 C 7.03 g/m*3 7.3 C 0 km/h
93 04-12-2011 18:27:02 7.3 C 7.03 g/m*3 7.3 C 0 km/h
94 04-12-2011 18:39:03 7.3 C 7.03 g/m*3 7.3 C 0 km/h
95 04-12-2011 18:51:02 7.3 C 7.03 g/m*3 7.3 C 0 km/h
96 04-12-2011 19:03:02 7.3 C 7.11 g/m*3 7.3 C 0 km/h
97 04-12-2011 19:15:01 7.5 C 7.2 g/m*3 7.5 C 0 km/h
98 04-12-2011 19:27:01 7.3 C 7.11 g/m*3 7.3 C 0 km/h
99 04-12-2011 19:39:02 7.4 C 7.16 g/m*3 7.4 C 0 km/h
100 04-12-2011 19:51:02 7.4 C 7.16 g/m*3 7.4 C 0 km/h
Sensor: Nr:Datum:Temp:Abs-Feuchte:Windchill:Wind:
Aussen-T/F 101 04-12-2011 20:03:02 7.4 C 7.16 g/m*3 7.4 C 0 km/h
102 04-12-2011 20:15:02 7.2 C 7.06 g/m*3 7.2 C 0 km/h
103 04-12-2011 20:27:02 7.2 C 7.06 g/m*3 7.2 C 0 km/h
104 04-12-2011 20:39:02 7.2 C 7.14 g/m*3 7.2 C 0 km/h
105 04-12-2011 20:51:02 7.3 C 7.19 g/m*3 7.3 C 0 km/h
106 04-12-2011 21:03:02 7.5 C 7.28 g/m*3 7.5 C 0 km/h
107 04-12-2011 21:15:03 7.9 C 7.47 g/m*3 7.9 C 0 km/h
108 04-12-2011 21:27:03 7.8 C 7.43 g/m*3 7.8 C 0 km/h
109 04-12-2011 21:39:02 7.7 C 7.38 g/m*3 7.7 C 0 km/h
110 04-12-2011 21:51:01 7.6 C 7.33 g/m*3 7.6 C 0 km/h
111 04-12-2011 22:03:01 7.5 C 7.2 g/m*3 7.5 C 0 km/h
112 04-12-2011 22:15:02 7.4 C 7.08 g/m*3 7.4 C 0 km/h
113 04-12-2011 22:27:02 7.3 C 7.03 g/m*3 7.3 C 0 km/h
114 04-12-2011 22:39:01 7.4 C 7.08 g/m*3 7.4 C 0 km/h
115 04-12-2011 22:51:03 7.3 C 7.03 g/m*3 7.3 C 0 km/h
116 04-12-2011 23:03:02 7.1 C 6.94 g/m*3 7.1 C 0 km/h
117 04-12-2011 23:15:02 7 C 6.9 g/m*3 7 C 0 km/h
118 04-12-2011 23:27:03 6.7 C 6.76 g/m*3 6.7 C 0 km/h
119 04-12-2011 23:39:02 6.4 C 6.48 g/m*3 6.4 C 0 km/h
120 04-12-2011 23:51:02 6 C 6.24 g/m*3 6 C 0 km/h

Legende:
   Min
   Max


Maximal/Minimal-Werte vom 04.12.2011 - 04.12.2011

Sensor Min Max Avg
Temp
(Aussen-T/F)
6 °C
04-12-2011  23:51:02
10.2 °C
04-12-2011  04:51:01
8.3 °C
Abs-Feuchte
(Aussen-T/F)
5.72 g/m*3
04-12-2011  12:39:01
7.91 g/m*3
04-12-2011  07:39:01
6.74 g/m*3
Windchill
(Aussen-T/F)
6 C
04-12-2011  23:51:02
10.2 C
04-12-2011  04:51:01
8.23 C

Die Daten stammen von einer Davis Vantage Pro 2 Wetter-Station und werden unter Linux mit der Software wview2wettercgi und aufbereitet. Alle Angaben erfolgen ohne Gewähr für ihre Vollständigkeit oder Richtigkeit.
Kontakt: Rainer Krienke krienke@uni-koblenz.de . Meine Webseiten an der Uni Koblenz oder privat.
Version: $Revision: 0.78 $